GRL781 EKCH-BGGH
Flight info
| Callsign | GRL781 |
|---|---|
| Flight time | 4h 38m |
| Altitude | 38000 |
| Route | GOLGA DCT GUNPA/M080F380 DCT 63N010W 64N020W/M081F400 65N030W 65N040W DCT GETDA |
| Aircraft | A339/H-SADE1E2E3GHIJ3J5M1P2RWXY/LB2D1 |
Departure
| Time | 2026-04-30 13:06 |
|---|---|
| Airport | Copenhagen Kastrup Airport (EKCH) |
Arrival
| Time | 2026-04-30 17:44 |
|---|---|
| Airport | Nuuk International Airport (BGGH) |
| Time | Latitude | Longitude | Altitude | Speed | Heading |
|---|---|---|---|---|---|
| 2026-04-30 12:28 | 55.62623 | 12.64420 | 27 ft | 0 kts | 67° |
| 2026-04-30 12:55 | 55.62619 | 12.64403 | 28 ft | 3 kts | 67° |
| 2026-04-30 12:56 | 55.62611 | 12.64370 | 28 ft | 3 kts | 67° |
| 2026-04-30 12:56 | 55.62603 | 12.64337 | 28 ft | 3 kts | 67° |
| 2026-04-30 12:56 | 55.62595 | 12.64304 | 28 ft | 3 kts | 67° |
| 2026-04-30 12:56 | 55.62587 | 12.64274 | 28 ft | 3 kts | 82° |
| 2026-04-30 12:57 | 55.62585 | 12.64245 | 28 ft | 3 kts | 109° |
| 2026-04-30 12:57 | 55.62592 | 12.64213 | 28 ft | 3 kts | 124° |
| 2026-04-30 12:57 | 55.62603 | 12.64184 | 28 ft | 3 kts | 124° |
| 2026-04-30 12:57 | 55.62613 | 12.64157 | 28 ft | 3 kts | 123° |
| 2026-04-30 12:58 | 55.62625 | 12.64127 | 28 ft | 3 kts | 123° |
| 2026-04-30 12:58 | 55.62636 | 12.64097 | 28 ft | 3 kts | 123° |
| 2026-04-30 12:58 | 55.62640 | 12.64085 | 28 ft | 0 kts | 123° |
| 2026-04-30 13:00 | 55.62632 | 12.64107 | 28 ft | 6 kts | 123° |
| 2026-04-30 13:00 | 55.62603 | 12.64186 | 27 ft | 9 kts | 123° |
| 2026-04-30 13:00 | 55.62551 | 12.64325 | 25 ft | 19 kts | 123° |
| 2026-04-30 13:01 | 55.62467 | 12.64476 | 24 ft | 8 kts | 178° |
| 2026-04-30 13:01 | 55.62364 | 12.64439 | 24 ft | 20 kts | 193° |
| 2026-04-30 13:01 | 55.62214 | 12.64419 | 21 ft | 23 kts | 181° |
| 2026-04-30 13:01 | 55.62063 | 12.64451 | 25 ft | 23 kts | 171° |
| 2026-04-30 13:02 | 55.61901 | 12.64503 | 23 ft | 24 kts | 169° |
| 2026-04-30 13:02 | 55.61736 | 12.64555 | 24 ft | 25 kts | 170° |
| 2026-04-30 13:02 | 55.61562 | 12.64611 | 26 ft | 26 kts | 169° |
| 2026-04-30 13:02 | 55.61387 | 12.64671 | 25 ft | 19 kts | 169° |
| 2026-04-30 13:03 | 55.61283 | 12.64729 | 27 ft | 9 kts | 134° |
| 2026-04-30 13:03 | 55.61294 | 12.64824 | 29 ft | 8 kts | 59° |
| 2026-04-30 13:03 | 55.61349 | 12.64912 | 29 ft | 41 kts | 43° |
| 2026-04-30 13:03 | 55.61794 | 12.65604 | 27 ft | 125 kts | 41° |
| 2026-04-30 13:04 | 55.62034 | 12.65976 | 29 ft | 148 kts | 40° |
| 2026-04-30 13:04 | 55.62085 | 12.66054 | 33 ft | 151 kts | 40° |
| 2026-04-30 13:04 | 55.62345 | 12.66456 | 176 ft | 156 kts | 39° |
| 2026-04-30 13:05 | 55.62791 | 12.67141 | 613 ft | 161 kts | 37° |
| 2026-04-30 13:06 | 55.64607 | 12.69857 | 2266 ft | 180 kts | 38° |
| 2026-04-30 13:06 | 55.65594 | 12.71363 | 2828 ft | 195 kts | 29° |
| 2026-04-30 13:06 | 55.66915 | 12.72061 | 3245 ft | 206 kts | 356° |
| 2026-04-30 13:06 | 55.68366 | 12.71518 | 3690 ft | 223 kts | 341° |
| 2026-04-30 13:07 | 55.69919 | 12.70629 | 4033 ft | 244 kts | 343° |
| 2026-04-30 13:07 | 55.71601 | 12.69950 | 4608 ft | 251 kts | 350° |
| 2026-04-30 13:07 | 55.73335 | 12.69540 | 5355 ft | 252 kts | 354° |
| 2026-04-30 13:07 | 55.75094 | 12.69287 | 6031 ft | 255 kts | 356° |
| 2026-04-30 13:08 | 55.76871 | 12.69102 | 6781 ft | 257 kts | 358° |
| 2026-04-30 13:08 | 55.78649 | 12.68938 | 7424 ft | 260 kts | 358° |
| 2026-04-30 13:08 | 55.80461 | 12.68657 | 8095 ft | 264 kts | 348° |
| 2026-04-30 13:08 | 55.82127 | 12.67192 | 8791 ft | 272 kts | 323° |
| 2026-04-30 13:09 | 55.83467 | 12.64751 | 9465 ft | 279 kts | 314° |
| 2026-04-30 13:09 | 55.84697 | 12.62049 | 10157 ft | 284 kts | 313° |
| 2026-04-30 13:09 | 55.85949 | 12.59353 | 10731 ft | 290 kts | 314° |
| 2026-04-30 13:09 | 55.87332 | 12.56567 | 10919 ft | 309 kts | 316° |
| 2026-04-30 13:10 | 55.88846 | 12.53674 | 11099 ft | 329 kts | 317° |
| 2026-04-30 13:10 | 55.90451 | 12.50677 | 11543 ft | 337 kts | 317° |
| 2026-04-30 13:10 | 55.92091 | 12.47625 | 12057 ft | 342 kts | 317° |
| 2026-04-30 13:10 | 55.93744 | 12.44545 | 12694 ft | 345 kts | 318° |
| 2026-04-30 13:11 | 55.95415 | 12.41425 | 13278 ft | 349 kts | 318° |
| 2026-04-30 13:11 | 55.97075 | 12.38321 | 13913 ft | 351 kts | 318° |
| 2026-04-30 13:11 | 55.98772 | 12.35143 | 14469 ft | 355 kts | 318° |
| 2026-04-30 13:11 | 56.00478 | 12.31943 | 15051 ft | 357 kts | 318° |
| 2026-04-30 13:12 | 56.02196 | 12.28718 | 15614 ft | 359 kts | 318° |
| 2026-04-30 13:12 | 56.03923 | 12.25472 | 16164 ft | 361 kts | 318° |
| 2026-04-30 13:12 | 56.05663 | 12.22197 | 16721 ft | 364 kts | 318° |
| 2026-04-30 13:13 | 56.09172 | 12.15576 | 17812 ft | 369 kts | 318° |
| 2026-04-30 13:13 | 56.10947 | 12.12219 | 18371 ft | 371 kts | 318° |
| 2026-04-30 13:13 | 56.14523 | 12.05441 | 19381 ft | 376 kts | 318° |
| 2026-04-30 13:14 | 56.16324 | 12.02027 | 19812 ft | 379 kts | 317° |
| 2026-04-30 13:14 | 56.18142 | 11.98573 | 20329 ft | 381 kts | 317° |
| 2026-04-30 13:14 | 56.21765 | 11.91661 | 21349 ft | 384 kts | 317° |
| 2026-04-30 13:15 | 56.23601 | 11.88150 | 21859 ft | 386 kts | 316° |
| 2026-04-30 13:15 | 56.27302 | 11.81060 | 22888 ft | 390 kts | 316° |
| 2026-04-30 13:15 | 56.29161 | 11.77493 | 23448 ft | 390 kts | 316° |
| 2026-04-30 13:16 | 56.31021 | 11.73918 | 23995 ft | 393 kts | 316° |
| 2026-04-30 13:16 | 56.32892 | 11.70314 | 24405 ft | 395 kts | 316° |
| 2026-04-30 13:16 | 56.34766 | 11.66671 | 24824 ft | 398 kts | 315° |
| 2026-04-30 13:17 | 56.38493 | 11.59207 | 25680 ft | 402 kts | 315° |
| 2026-04-30 13:17 | 56.40377 | 11.55439 | 26077 ft | 405 kts | 314° |
| 2026-04-30 13:17 | 56.43536 | 11.49147 | 26758 ft | 409 kts | 314° |
| 2026-04-30 13:18 | 56.46082 | 11.44077 | 27293 ft | 412 kts | 314° |
| 2026-04-30 13:18 | 56.49955 | 11.36349 | 28090 ft | 416 kts | 314° |
| 2026-04-30 13:18 | 56.51903 | 11.32452 | 28472 ft | 419 kts | 314° |
| 2026-04-30 13:19 | 56.53863 | 11.28526 | 28852 ft | 421 kts | 314° |
| 2026-04-30 13:19 | 56.55829 | 11.24580 | 29216 ft | 423 kts | 314° |
| 2026-04-30 13:19 | 56.57809 | 11.20600 | 29582 ft | 426 kts | 314° |
| 2026-04-30 13:19 | 56.59794 | 11.16603 | 29937 ft | 428 kts | 314° |
| 2026-04-30 13:20 | 56.61791 | 11.12573 | 30313 ft | 430 kts | 314° |
| 2026-04-30 13:20 | 56.63799 | 11.08514 | 30667 ft | 432 kts | 313° |
| 2026-04-30 13:20 | 56.65806 | 11.04443 | 30986 ft | 434 kts | 313° |
| 2026-04-30 13:20 | 56.67824 | 11.00343 | 31302 ft | 436 kts | 313° |
| 2026-04-30 13:21 | 56.69848 | 10.96221 | 31623 ft | 438 kts | 313° |
| 2026-04-30 13:21 | 56.71882 | 10.92073 | 31950 ft | 440 kts | 313° |
| 2026-04-30 13:21 | 56.73925 | 10.87899 | 32255 ft | 442 kts | 313° |
| 2026-04-30 13:22 | 56.76645 | 10.82331 | 32664 ft | 445 kts | 313° |
| 2026-04-30 13:22 | 56.80105 | 10.75227 | 33130 ft | 448 kts | 313° |
| 2026-04-30 13:23 | 56.89968 | 10.54863 | 34090 ft | 454 kts | 313° |
| 2026-04-30 13:24 | 56.94137 | 10.46202 | 34526 ft | 453 kts | 313° |
| 2026-04-30 13:24 | 56.98289 | 10.37544 | 34905 ft | 452 kts | 312° |
| 2026-04-30 13:25 | 57.02432 | 10.28874 | 35261 ft | 452 kts | 312° |
| 2026-04-30 13:25 | 57.06566 | 10.20189 | 35617 ft | 451 kts | 312° |
| 2026-04-30 13:26 | 57.12724 | 10.07194 | 36120 ft | 451 kts | 311° |
| 2026-04-30 13:26 | 57.16846 | 9.98459 | 36475 ft | 450 kts | 311° |
| 2026-04-30 13:27 | 57.20944 | 9.89739 | 36815 ft | 450 kts | 311° |
| 2026-04-30 13:28 | 57.27091 | 9.76597 | 37297 ft | 450 kts | 311° |
| 2026-04-30 13:28 | 57.31176 | 9.67835 | 37766 ft | 446 kts | 311° |
| 2026-04-30 13:28 | 57.33169 | 9.63545 | 37962 ft | 445 kts | 311° |
| 2026-04-30 13:29 | 57.37221 | 9.54783 | 38396 ft | 441 kts | 311° |
| 2026-04-30 13:29 | 57.41200 | 9.46140 | 38470 ft | 448 kts | 311° |
| 2026-04-30 13:30 | 57.47261 | 9.32973 | 39068 ft | 444 kts | 310° |
| 2026-04-30 13:31 | 57.51278 | 9.24173 | 39196 ft | 447 kts | 310° |
| 2026-04-30 13:31 | 57.57326 | 9.10878 | 39449 ft | 449 kts | 310° |
| 2026-04-30 13:32 | 57.61372 | 9.01942 | 39568 ft | 451 kts | 310° |
| 2026-04-30 13:32 | 57.65418 | 8.92972 | 39781 ft | 451 kts | 310° |
| 2026-04-30 13:33 | 57.69439 | 8.84032 | 40029 ft | 449 kts | 311° |
| 2026-04-30 13:33 | 57.73408 | 8.75177 | 40319 ft | 441 kts | 310° |
| 2026-04-30 13:34 | 57.75375 | 8.70754 | 40413 ft | 442 kts | 310° |
| 2026-04-30 13:35 | 57.83257 | 8.53003 | 40418 ft | 446 kts | 310° |
| 2026-04-30 13:36 | 57.91201 | 8.35002 | 40404 ft | 452 kts | 310° |
| 2026-04-30 13:36 | 57.97133 | 8.21459 | 40396 ft | 449 kts | 310° |
| 2026-04-30 13:37 | 58.03101 | 8.07768 | 40382 ft | 446 kts | 310° |
| 2026-04-30 13:38 | 58.08991 | 7.94160 | 40376 ft | 444 kts | 309° |
| 2026-04-30 13:39 | 58.16790 | 7.76028 | 40383 ft | 444 kts | 309° |
| 2026-04-30 13:40 | 58.22609 | 7.62409 | 40392 ft | 445 kts | 309° |
| 2026-04-30 13:40 | 58.26509 | 7.53236 | 40383 ft | 446 kts | 309° |
| 2026-04-30 13:41 | 58.30417 | 7.43995 | 40397 ft | 451 kts | 309° |
| 2026-04-30 13:41 | 58.34347 | 7.34699 | 40402 ft | 450 kts | 308° |
| 2026-04-30 13:42 | 58.38250 | 7.25410 | 40404 ft | 449 kts | 308° |
| 2026-04-30 13:42 | 58.44118 | 7.11372 | 40406 ft | 454 kts | 308° |
| 2026-04-30 13:43 | 58.48035 | 7.01970 | 40406 ft | 450 kts | 308° |
| 2026-04-30 13:43 | 58.51921 | 6.92580 | 40411 ft | 452 kts | 308° |
| 2026-04-30 13:44 | 58.55830 | 6.83116 | 40413 ft | 452 kts | 307° |
| 2026-04-30 13:44 | 58.59717 | 6.73664 | 40436 ft | 451 kts | 307° |
| 2026-04-30 13:45 | 58.65528 | 6.59457 | 40434 ft | 454 kts | 307° |
| 2026-04-30 13:46 | 58.69400 | 6.49942 | 40441 ft | 450 kts | 307° |
| 2026-04-30 13:46 | 58.73244 | 6.40460 | 40439 ft | 448 kts | 307° |
| 2026-04-30 13:47 | 58.77098 | 6.30918 | 40463 ft | 454 kts | 307° |
| 2026-04-30 13:47 | 58.80975 | 6.21279 | 40478 ft | 455 kts | 307° |
| 2026-04-30 13:48 | 58.84842 | 6.11620 | 40486 ft | 454 kts | 307° |
| 2026-04-30 13:48 | 58.88701 | 6.01943 | 40497 ft | 454 kts | 307° |
| 2026-04-30 13:49 | 58.92527 | 5.92313 | 40499 ft | 454 kts | 306° |
| 2026-04-30 13:49 | 58.96361 | 5.82620 | 40500 ft | 453 kts | 306° |
| 2026-04-30 13:50 | 59.00186 | 5.72909 | 40497 ft | 453 kts | 306° |
| 2026-04-30 13:50 | 59.05903 | 5.58322 | 40483 ft | 452 kts | 306° |
| 2026-04-30 13:51 | 59.09704 | 5.48574 | 40480 ft | 452 kts | 306° |
| 2026-04-30 13:51 | 59.13498 | 5.38803 | 40477 ft | 452 kts | 306° |
| 2026-04-30 13:52 | 59.17265 | 5.29060 | 40474 ft | 453 kts | 306° |
| 2026-04-30 13:52 | 59.21048 | 5.19238 | 40475 ft | 453 kts | 306° |
| 2026-04-30 13:53 | 59.24825 | 5.09392 | 40478 ft | 453 kts | 305° |
| 2026-04-30 13:53 | 59.28591 | 4.99527 | 40478 ft | 453 kts | 305° |
| 2026-04-30 13:54 | 59.32355 | 4.89628 | 40479 ft | 453 kts | 305° |
| 2026-04-30 13:54 | 59.36111 | 4.79711 | 40478 ft | 453 kts | 305° |
| 2026-04-30 13:55 | 59.39858 | 4.69775 | 40476 ft | 453 kts | 305° |
| 2026-04-30 13:55 | 59.43571 | 4.59886 | 40473 ft | 453 kts | 304° |
| 2026-04-30 13:56 | 59.47300 | 4.49915 | 40471 ft | 453 kts | 304° |
| 2026-04-30 13:56 | 59.51028 | 4.39905 | 40471 ft | 453 kts | 304° |
| 2026-04-30 13:57 | 59.54745 | 4.29880 | 40468 ft | 453 kts | 304° |
| 2026-04-30 13:57 | 59.58456 | 4.19825 | 40466 ft | 453 kts | 304° |
| 2026-04-30 13:58 | 59.64013 | 4.04692 | 40466 ft | 453 kts | 304° |
| 2026-04-30 13:59 | 59.67684 | 3.94641 | 40464 ft | 453 kts | 303° |
| 2026-04-30 13:59 | 59.71369 | 3.84514 | 40457 ft | 453 kts | 303° |
| 2026-04-30 14:00 | 59.75058 | 3.74322 | 40459 ft | 453 kts | 303° |
| 2026-04-30 14:00 | 59.80539 | 3.59101 | 40452 ft | 454 kts | 303° |
| 2026-04-30 14:01 | 59.84201 | 3.48878 | 40465 ft | 454 kts | 303° |
| 2026-04-30 14:01 | 59.87851 | 3.38642 | 40464 ft | 453 kts | 302° |
| 2026-04-30 14:02 | 59.91492 | 3.28390 | 40463 ft | 453 kts | 302° |
| 2026-04-30 14:02 | 59.95127 | 3.18112 | 40441 ft | 453 kts | 302° |
| 2026-04-30 14:03 | 59.98749 | 3.07818 | 40428 ft | 453 kts | 302° |
| 2026-04-30 14:03 | 60.02360 | 2.97510 | 40434 ft | 453 kts | 302° |
| 2026-04-30 14:04 | 60.05962 | 2.87186 | 40441 ft | 452 kts | 302° |
| 2026-04-30 14:04 | 60.09559 | 2.76830 | 40442 ft | 452 kts | 302° |
| 2026-04-30 14:05 | 60.13123 | 2.66523 | 40427 ft | 452 kts | 301° |
| 2026-04-30 14:05 | 60.16702 | 2.56135 | 40416 ft | 452 kts | 301° |
| 2026-04-30 14:06 | 60.22052 | 2.40503 | 40415 ft | 452 kts | 301° |
| 2026-04-30 14:07 | 60.27386 | 2.24818 | 40405 ft | 452 kts | 301° |
| 2026-04-30 14:08 | 60.32689 | 2.09119 | 40402 ft | 452 kts | 300° |
| 2026-04-30 14:08 | 60.37959 | 1.93414 | 40393 ft | 452 kts | 300° |
| 2026-04-30 14:09 | 60.41475 | 1.82874 | 40385 ft | 452 kts | 300° |
| 2026-04-30 14:10 | 60.46147 | 1.68798 | 40399 ft | 452 kts | 300° |
| 2026-04-30 14:10 | 60.49646 | 1.58199 | 40388 ft | 451 kts | 300° |
| 2026-04-30 14:11 | 60.53132 | 1.47591 | 40373 ft | 451 kts | 300° |
| 2026-04-30 14:11 | 60.56607 | 1.36967 | 40371 ft | 450 kts | 299° |
| 2026-04-30 14:12 | 60.60073 | 1.26328 | 40357 ft | 451 kts | 299° |
| 2026-04-30 14:12 | 60.63506 | 1.15734 | 40352 ft | 451 kts | 299° |
| 2026-04-30 14:13 | 60.66957 | 1.05035 | 40346 ft | 451 kts | 299° |
| 2026-04-30 14:13 | 60.70395 | 0.94331 | 40347 ft | 451 kts | 298° |
| 2026-04-30 14:14 | 60.73831 | 0.83582 | 40349 ft | 451 kts | 298° |
| 2026-04-30 14:14 | 60.77256 | 0.72823 | 40338 ft | 451 kts | 298° |
| 2026-04-30 14:15 | 60.80672 | 0.62040 | 40329 ft | 452 kts | 298° |
| 2026-04-30 14:15 | 60.84086 | 0.51227 | 40321 ft | 452 kts | 298° |
| 2026-04-30 14:16 | 60.87497 | 0.40392 | 40318 ft | 452 kts | 298° |
| 2026-04-30 14:16 | 60.90897 | 0.29543 | 40317 ft | 452 kts | 298° |
| 2026-04-30 14:17 | 60.94292 | 0.18662 | 40307 ft | 452 kts | 297° |
| 2026-04-30 14:17 | 60.97669 | 0.07751 | 40305 ft | 451 kts | 296° |
| 2026-04-30 14:18 | 61.00783 | -0.03362 | 40303 ft | 450 kts | 294° |
| 2026-04-30 14:18 | 61.05078 | -0.20550 | 40310 ft | 449 kts | 292° |
| 2026-04-30 14:19 | 61.09403 | -0.37728 | 40301 ft | 449 kts | 292° |
| 2026-04-30 14:20 | 61.12251 | -0.49197 | 40302 ft | 448 kts | 292° |
| 2026-04-30 14:20 | 61.16488 | -0.66440 | 40268 ft | 448 kts | 291° |
| 2026-04-30 14:21 | 61.19276 | -0.77888 | 40267 ft | 448 kts | 291° |
| 2026-04-30 14:22 | 61.23468 | -0.95212 | 40278 ft | 447 kts | 291° |
| 2026-04-30 14:22 | 61.27634 | -1.12564 | 40266 ft | 447 kts | 291° |
| 2026-04-30 14:23 | 61.33163 | -1.35809 | 40262 ft | 447 kts | 291° |
| 2026-04-30 14:24 | 61.37264 | -1.53213 | 40248 ft | 448 kts | 291° |
| 2026-04-30 14:25 | 61.42723 | -1.76602 | 40239 ft | 448 kts | 290° |
| 2026-04-30 14:26 | 61.46789 | -1.94188 | 40238 ft | 448 kts | 290° |
| 2026-04-30 14:27 | 61.50832 | -2.11821 | 40256 ft | 448 kts | 290° |
| 2026-04-30 14:27 | 61.53518 | -2.23619 | 40233 ft | 448 kts | 290° |
| 2026-04-30 14:28 | 61.57529 | -2.41348 | 40220 ft | 448 kts | 290° |
| 2026-04-30 14:28 | 61.60172 | -2.53116 | 40217 ft | 448 kts | 290° |
| 2026-04-30 14:29 | 61.65015 | -2.74850 | 40207 ft | 448 kts | 290° |
| 2026-04-30 14:31 | 61.71998 | -3.06591 | 40204 ft | 448 kts | 289° |
| 2026-04-30 14:31 | 61.75898 | -3.24524 | 40187 ft | 448 kts | 289° |
| 2026-04-30 14:32 | 61.79773 | -3.42498 | 40193 ft | 448 kts | 289° |
| 2026-04-30 14:33 | 61.82343 | -3.54504 | 40207 ft | 448 kts | 289° |
| 2026-04-30 14:33 | 61.86161 | -3.72469 | 40191 ft | 447 kts | 289° |
| 2026-04-30 14:34 | 61.88702 | -3.84513 | 40193 ft | 447 kts | 289° |
| 2026-04-30 14:34 | 61.91229 | -3.96557 | 40189 ft | 447 kts | 289° |
| 2026-04-30 14:35 | 61.94995 | -4.14643 | 40178 ft | 446 kts | 289° |
| 2026-04-30 14:36 | 61.97489 | -4.26708 | 40176 ft | 446 kts | 288° |
| 2026-04-30 14:36 | 61.99975 | -4.38801 | 40168 ft | 446 kts | 288° |
| 2026-04-30 14:37 | 62.02451 | -4.50916 | 40165 ft | 446 kts | 288° |
| 2026-04-30 14:37 | 62.04902 | -4.62985 | 40160 ft | 446 kts | 288° |
| 2026-04-30 14:38 | 62.07360 | -4.75155 | 40162 ft | 446 kts | 288° |
| 2026-04-30 14:38 | 62.09808 | -4.87354 | 40157 ft | 446 kts | 288° |
| 2026-04-30 14:39 | 62.12243 | -4.99557 | 40151 ft | 446 kts | 288° |
| 2026-04-30 14:39 | 62.14667 | -5.11777 | 40153 ft | 447 kts | 287° |
| 2026-04-30 14:40 | 62.18274 | -5.30107 | 40149 ft | 447 kts | 287° |
| 2026-04-30 14:40 | 62.20689 | -5.42468 | 40138 ft | 447 kts | 287° |
| 2026-04-30 14:41 | 62.23060 | -5.54684 | 40131 ft | 447 kts | 287° |
| 2026-04-30 14:41 | 62.25437 | -5.67004 | 40133 ft | 447 kts | 287° |
| 2026-04-30 14:42 | 62.27803 | -5.79345 | 40133 ft | 447 kts | 287° |
| 2026-04-30 14:42 | 62.30160 | -5.91714 | 40116 ft | 448 kts | 287° |
| 2026-04-30 14:43 | 62.32510 | -6.04124 | 40117 ft | 448 kts | 287° |
| 2026-04-30 14:43 | 62.34851 | -6.16559 | 40117 ft | 448 kts | 287° |
| 2026-04-30 14:44 | 62.37180 | -6.29016 | 40117 ft | 448 kts | 286° |
| 2026-04-30 14:44 | 62.39500 | -6.41498 | 40121 ft | 448 kts | 286° |
| 2026-04-30 14:45 | 62.41809 | -6.54003 | 40121 ft | 448 kts | 286° |
| 2026-04-30 14:45 | 62.44089 | -6.66433 | 40121 ft | 448 kts | 286° |
| 2026-04-30 14:46 | 62.46378 | -6.78991 | 40119 ft | 448 kts | 286° |
| 2026-04-30 14:46 | 62.48268 | -6.89418 | 40111 ft | 448 kts | 286° |
| 2026-04-30 14:47 | 62.50913 | -7.04109 | 40107 ft | 448 kts | 285° |
| 2026-04-30 14:47 | 62.53161 | -7.16682 | 40107 ft | 448 kts | 285° |
| 2026-04-30 14:48 | 62.55399 | -7.29284 | 40105 ft | 448 kts | 285° |
| 2026-04-30 14:48 | 62.57623 | -7.41892 | 40102 ft | 447 kts | 285° |
| 2026-04-30 14:49 | 62.59817 | -7.54410 | 40095 ft | 446 kts | 285° |
| 2026-04-30 14:49 | 62.62018 | -7.67046 | 40128 ft | 447 kts | 285° |
| 2026-04-30 14:50 | 62.65284 | -7.85956 | 40088 ft | 445 kts | 285° |
| 2026-04-30 14:51 | 62.68528 | -8.04933 | 40076 ft | 446 kts | 284° |
| 2026-04-30 14:52 | 62.71744 | -8.23937 | 40071 ft | 446 kts | 284° |
| 2026-04-30 14:52 | 62.74922 | -8.42907 | 40070 ft | 446 kts | 284° |
| 2026-04-30 14:53 | 62.78088 | -8.61999 | 40064 ft | 445 kts | 284° |
| 2026-04-30 14:54 | 62.82258 | -8.87456 | 40052 ft | 445 kts | 284° |
| 2026-04-30 14:55 | 62.85361 | -9.06629 | 40050 ft | 446 kts | 283° |
| 2026-04-30 14:56 | 62.89447 | -9.32189 | 40049 ft | 445 kts | 283° |
| 2026-04-30 14:57 | 62.92157 | -9.49342 | 40048 ft | 444 kts | 283° |
| 2026-04-30 14:58 | 62.96170 | -9.74957 | 40038 ft | 444 kts | 283° |
| 2026-04-30 14:58 | 62.99159 | -9.94256 | 40041 ft | 444 kts | 282° |
| 2026-04-30 15:00 | 63.03637 | -10.26633 | 40032 ft | 443 kts | 281° |
| 2026-04-30 15:01 | 63.07224 | -10.52622 | 40040 ft | 443 kts | 281° |
| 2026-04-30 15:01 | 63.09863 | -10.72215 | 40028 ft | 443 kts | 281° |
| 2026-04-30 15:02 | 63.11600 | -10.85283 | 40031 ft | 443 kts | 281° |
| 2026-04-30 15:03 | 63.15883 | -11.17964 | 40027 ft | 444 kts | 280° |
| 2026-04-30 15:04 | 63.20100 | -11.50829 | 40016 ft | 444 kts | 280° |
| 2026-04-30 15:06 | 63.24239 | -11.83767 | 40024 ft | 444 kts | 280° |
| 2026-04-30 15:07 | 63.27503 | -12.10246 | 40016 ft | 444 kts | 280° |
| 2026-04-30 15:08 | 63.30709 | -12.36714 | 40019 ft | 443 kts | 280° |
| 2026-04-30 15:09 | 63.34638 | -12.69797 | 39999 ft | 443 kts | 279° |
| 2026-04-30 15:10 | 63.37734 | -12.96405 | 40001 ft | 443 kts | 279° |
| 2026-04-30 15:11 | 63.42266 | -13.36252 | 39996 ft | 442 kts | 279° |
| 2026-04-30 15:13 | 63.45974 | -13.69690 | 39987 ft | 443 kts | 279° |
| 2026-04-30 15:14 | 63.51022 | -14.16554 | 39984 ft | 442 kts | 279° |
| 2026-04-30 15:17 | 63.57277 | -14.76941 | 39975 ft | 442 kts | 278° |
| 2026-04-30 15:19 | 63.62628 | -15.30886 | 39958 ft | 442 kts | 278° |
| 2026-04-30 17:39 | 64.05179 | -51.76690 | 2935 ft | 153 kts | 11° |
| 2026-04-30 17:41 | 64.12875 | -51.72512 | 1425 ft | 138 kts | 19° |
| 2026-04-30 17:42 | 64.14635 | -51.71184 | 1121 ft | 132 kts | 18° |
| 2026-04-30 17:42 | 64.17214 | -51.69272 | 486 ft | 126 kts | 16° |
| 2026-04-30 17:43 | 64.18619 | -51.68276 | 298 ft | 122 kts | 18° |
| 2026-04-30 17:44 | 64.19725 | -51.67477 | 293 ft | 29 kts | 18° |
| 2026-04-30 17:44 | 64.19992 | -51.67271 | 287 ft | 3 kts | 123° |
| 2026-04-30 17:46 | 64.19173 | -51.67875 | 293 ft | 24 kts | 198° |
| 2026-04-30 17:47 | 64.18869 | -51.67720 | 287 ft | 19 kts | 198° |
| 2026-04-30 17:48 | 64.18579 | -51.67800 | 287 ft | 0 kts | 147° |
| 2026-04-30 17:48 | 64.18556 | -51.67765 | 287 ft | 0 kts | 146° |